Time;durP1;ratioP1;P1;durP2;ratioP2;P2;SDS_P1;SDS_P2;PMS_P1;PMS_P2;Temp;Humidity;BMP_temperature;BMP_pressure;BME280_temperature;BME280_humidity;BME280_pressure;Samples;Min_cycle;Max_cycle;Signal;HPM_P1;HPM_P2
2021/10/21 00:00:59;;;;;;;23.30;12.77;;;13.40;99.90;;;;;;4111779;28;20121;-73
2021/10/21 00:03:01;;;;;;;20.70;12.57;;;13.40;99.90;;;;;;4114870;28;20043;-73
2021/10/21 00:05:01;;;;;;;23.42;11.75;;;13.40;99.90;;;;;;4113248;28;20050;-73
2021/10/21 00:07:02;;;;;;;20.90;10.60;;;13.40;99.90;;;;;;4116224;28;20501;-73
2021/10/21 00:09:04;;;;;;;28.15;13.05;;;13.50;99.90;;;;;;4113946;28;20109;-74
2021/10/21 00:11:04;;;;;;;32.58;13.20;;;13.50;99.90;;;;;;4117872;28;20459;-73
2021/10/21 00:13:05;;;;;;;24.08;13.05;;;13.50;99.90;;;;;;4110112;28;20038;-73
2021/10/21 00:15:09;;;;;;;25.65;13.25;;;13.50;99.90;;;;;;4129594;28;20034;-74
2021/10/21 00:17:09;;;;;;;24.50;10.77;;;13.50;99.90;;;;;;4130366;28;20030;-74
2021/10/21 00:19:10;;;;;;;23.25;12.45;;;13.50;99.90;;;;;;4126901;28;20121;-73
2021/10/21 00:21:11;;;;;;;26.42;13.20;;;13.60;99.90;;;;;;4111953;28;20068;-73
2021/10/21 00:23:12;;;;;;;23.70;13.18;;;13.60;99.90;;;;;;4111495;28;20054;-73
2021/10/21 00:25:13;;;;;;;24.92;13.50;;;13.60;99.90;;;;;;4114160;28;20146;-73
2021/10/21 00:27:14;;;;;;;24.85;13.82;;;13.60;99.90;;;;;;4113667;28;20047;-73
2021/10/21 00:29:15;;;;;;;23.30;13.65;;;13.60;99.90;;;;;;4125583;28;20386;-72
2021/10/21 00:31:16;;;;;;;21.75;12.32;;;13.60;99.90;;;;;;4112758;28;20193;-72
2021/10/21 00:33:16;;;;;;;29.00;13.13;;;13.60;99.90;;;;;;4124775;28;20046;-72
2021/10/21 00:35:17;;;;;;;17.42;11.85;;;13.60;99.90;;;;;;4113920;28;20564;-73
2021/10/21 00:37:18;;;;;;;20.70;11.90;;;13.50;99.90;;;;;;4096804;28;20035;-73
2021/10/21 00:39:19;;;;;;;20.05;11.63;;;13.50;99.90;;;;;;4100613;28;20062;-72
2021/10/21 00:41:19;;;;;;;21.63;10.82;;;13.60;99.90;;;;;;4111037;28;20039;-73
2021/10/21 00:43:20;;;;;;;20.30;10.70;;;13.50;99.90;;;;;;4112958;28;20045;-73
2021/10/21 00:45:21;;;;;;;19.52;11.38;;;13.50;99.90;;;;;;4113040;28;20047;-72
2021/10/21 00:47:22;;;;;;;21.50;10.63;;;13.50;99.90;;;;;;4113144;28;20137;-73
2021/10/21 00:49:23;;;;;;;16.95;10.23;;;13.50;99.90;;;;;;4111283;28;20090;-73
2021/10/21 00:51:24;;;;;;;13.38;8.93;;;13.50;99.90;;;;;;4127485;28;20042;-72
2021/10/21 00:53:27;;;;;;;16.65;8.52;;;13.60;99.90;;;;;;4115869;28;20104;-73
2021/10/21 00:55:28;;;;;;;11.75;7.90;;;13.60;99.90;;;;;;4119510;28;20101;-73
2021/10/21 00:57:28;;;;;;;12.95;6.82;;;13.70;99.90;;;;;;4114663;28;20035;-73
2021/10/21 00:59:32;;;;;;;13.15;7.22;;;13.70;99.90;;;;;;4113309;28;20067;-72
2021/10/21 01:01:34;;;;;;;;;;;13.70;99.90;;;;;;4126883;28;20038;-73
2021/10/21 01:03:35;;;;;;;9.82;6.13;;;13.70;99.90;;;;;;4114952;28;19964;-73
2021/10/21 01:05:36;;;;;;;8.95;5.45;;;13.80;99.90;;;;;;4111400;28;20038;-72
2021/10/21 01:07:37;;;;;;;9.52;6.10;;;13.80;99.90;;;;;;4097359;28;20046;-72
2021/10/21 01:09:42;;;;;;;6.35;4.38;;;13.80;99.90;;;;;;4117154;28;20038;-73
2021/10/21 01:11:43;;;;;;;6.82;5.07;;;13.90;99.90;;;;;;4123388;28;20453;-73
2021/10/21 01:13:45;;;;;;;9.88;4.43;;;14.00;99.90;;;;;;4111094;28;20406;-72
2021/10/21 01:15:46;;;;;;;7.30;4.22;;;14.20;99.90;;;;;;4108870;28;20042;-74
2021/10/21 01:17:48;;;;;;;7.70;4.55;;;14.30;99.90;;;;;;4122919;28;20031;-74
2021/10/21 01:19:50;;;;;;;8.30;3.92;;;14.40;99.90;;;;;;4105104;28;20034;-74
2021/10/21 01:21:54;;;;;;;10.10;4.40;;;14.40;99.90;;;;;;4109232;28;20039;-74
2021/10/21 01:23:55;;;;;;;5.65;2.85;;;14.30;99.90;;;;;;4110083;28;20039;-74
2021/10/21 01:25:56;;;;;;;3.30;1.88;;;14.10;99.90;;;;;;4109418;28;20047;-75
2021/10/21 01:27:57;;;;;;;6.20;2.28;;;13.40;99.90;;;;;;4107997;28;20055;-78
2021/10/21 01:29:58;;;;;;;4.22;1.77;;;12.90;99.90;;;;;;4107474;28;20418;-76
2021/10/21 01:31:59;;;;;;;5.80;2.55;;;12.50;99.90;;;;;;4110594;28;20042;-78
2021/10/21 01:34:00;;;;;;;3.10;1.85;;;12.20;99.90;;;;;;4130296;28;20062;-77
2021/10/21 01:36:00;;;;;;;4.00;1.70;;;11.90;99.90;;;;;;4114142;28;20546;-77
2021/10/21 01:38:01;;;;;;;3.10;1.80;;;11.70;99.90;;;;;;4111088;28;20105;-78
2021/10/21 01:40:02;;;;;;;2.65;2.22;;;11.60;99.90;;;;;;4096992;28;20516;-78
2021/10/21 01:42:03;;;;;;;6.03;2.20;;;11.40;99.90;;;;;;4117486;28;20057;-78
2021/10/21 01:44:06;;;;;;;3.75;2.10;;;11.30;99.90;;;;;;4111560;28;20122;-79
2021/10/21 01:46:09;;;;;;;5.57;2.00;;;11.30;99.90;;;;;;4135134;28;20038;-78
2021/10/21 01:48:09;;;;;;;2.83;1.80;;;11.30;99.90;;;;;;4111329;28;20039;-76
2021/10/21 01:50:11;;;;;;;3.67;1.83;;;11.30;99.90;;;;;;4112097;28;20033;-77
2021/10/21 01:52:12;;;;;;;2.22;2.00;;;11.20;99.90;;;;;;4111620;28;20027;-78
2021/10/21 01:54:12;;;;;;;2.42;2.03;;;11.20;99.90;;;;;;4097274;28;20388;-78
2021/10/21 01:56:13;;;;;;;5.55;2.05;;;11.20;99.90;;;;;;4105469;28;20546;-78
2021/10/21 01:58:14;;;;;;;2.22;1.67;;;11.30;99.90;;;;;;4122215;28;20043;-77
2021/10/21 02:00:18;;;;;;;4.50;2.00;;;11.30;99.90;;;;;;4111189;28;20039;-77
2021/10/21 02:02:18;;;;;;;3.05;1.90;;;11.30;99.90;;;;;;4127384;28;20497;-77
2021/10/21 02:04:19;;;;;;;4.43;1.85;;;11.30;99.90;;;;;;4108962;28;20121;-78
2021/10/21 02:06:20;;;;;;;3.35;1.65;;;11.20;99.90;;;;;;4124749;28;20057;-79
2021/10/21 02:08:22;;;;;;;2.38;1.63;;;11.20;99.90;;;;;;4107092;28;20051;-78
2021/10/21 02:10:22;;;;;;;3.90;1.77;;;11.30;99.90;;;;;;4125816;28;20039;-77
2021/10/21 02:12:24;;;;;;;1.80;1.65;;;11.30;99.90;;;;;;4110627;28;20034;-77
2021/10/21 02:14:24;;;;;;;3.17;1.73;;;11.40;99.90;;;;;;4124929;28;20057;-79
2021/10/21 02:16:25;;;;;;;3.80;1.95;;;11.40;99.90;;;;;;4112054;28;20593;-79
2021/10/21 02:18:28;;;;;;;5.95;2.92;;;11.40;99.90;;;;;;4114029;28;20038;-79
2021/10/21 02:20:29;;;;;;;4.65;1.70;;;11.30;99.90;;;;;;4125403;28;20038;-78
2021/10/21 02:22:30;;;;;;;3.08;1.70;;;11.20;99.90;;;;;;4124853;28;20382;-78
2021/10/21 02:24:31;;;;;;;3.85;1.90;;;11.20;99.90;;;;;;4112316;28;20042;-78
2021/10/21 02:26:32;;;;;;;8.30;2.10;;;11.20;99.90;;;;;;4109544;28;20101;-77
2021/10/21 02:28:33;;;;;;;5.07;1.95;;;11.30;99.90;;;;;;4112225;28;20090;-79
2021/10/21 02:30:33;;;;;;;3.90;1.73;;;11.30;99.90;;;;;;4111911;28;20565;-79
2021/10/21 02:32:35;;;;;;;6.40;2.33;;;11.30;99.90;;;;;;4112988;28;20039;-78
2021/10/21 02:34:35;;;;;;;6.05;2.00;;;11.30;99.90;;;;;;4123606;28;20042;-77
2021/10/21 02:36:36;;;;;;;5.95;3.15;;;11.30;99.90;;;;;;4111769;28;20165;-78
2021/10/21 02:38:37;;;;;;;3.67;2.03;;;11.40;99.90;;;;;;4110908;28;20042;-79
2021/10/21 02:40:39;;;;;;;4.68;2.30;;;11.50;99.90;;;;;;4127888;28;20026;-79
2021/10/21 02:42:40;;;;;;;6.03;2.08;;;11.40;99.90;;;;;;4113256;28;20125;-79
2021/10/21 02:44:41;;;;;;;6.07;3.30;;;11.40;99.90;;;;;;4112693;28;20411;-78
2021/10/21 02:46:42;;;;;;;4.00;2.10;;;11.40;99.90;;;;;;4110563;28;20117;-78
2021/10/21 02:48:42;;;;;;;5.93;2.30;;;11.40;99.90;;;;;;4095858;28;20450;-78
2021/10/21 02:50:43;;;;;;;4.70;2.40;;;11.40;99.90;;;;;;4100937;28;20055;-78
2021/10/21 02:52:44;;;;;;;9.02;2.80;;;11.40;99.90;;;;;;4111024;28;20534;-79
2021/10/21 02:54:45;;;;;;;4.45;2.35;;;11.40;99.90;;;;;;4112868;28;20038;-78
2021/10/21 02:56:45;;;;;;;8.25;2.08;;;11.40;99.90;;;;;;4096300;28;20049;-78
2021/10/21 02:58:46;;;;;;;8.40;2.22;;;11.40;99.90;;;;;;4113959;28;20034;-79
2021/10/21 03:00:47;;;;;;;4.32;2.10;;;11.30;99.90;;;;;;4128222;28;20041;-77
2021/10/21 03:02:48;;;;;;;8.85;2.65;;;11.30;99.90;;;;;;4114434;28;20118;-79
2021/10/21 03:04:48;;;;;;;6.93;2.00;;;11.20;99.90;;;;;;4098834;28;20035;-80
2021/10/21 03:06:49;;;;;;;4.97;2.42;;;11.10;99.90;;;;;;4112347;28;20466;-79
2021/10/21 03:08:50;;;;;;;10.40;4.32;;;11.10;99.90;;;;;;4111292;28;20038;-77
2021/10/21 03:10:51;;;;;;;7.47;2.58;;;11.00;99.90;;;;;;4109856;28;20047;-76
2021/10/21 03:12:52;;;;;;;6.75;1.92;;;11.00;99.90;;;;;;4111336;28;20038;-78
2021/10/21 03:14:53;;;;;;;4.85;2.78;;;11.00;99.90;;;;;;4102811;28;20059;-78
2021/10/21 03:16:54;;;;;;;4.13;2.05;;;10.80;99.90;;;;;;4108490;28;20062;-79
2021/10/21 03:18:56;;;;;;;7.13;2.22;;;10.80;99.90;;;;;;4115783;28;20081;-79
2021/10/21 03:20:57;;;;;;;4.63;2.47;;;10.80;99.90;;;;;;4109176;28;20388;-77
2021/10/21 03:22:58;;;;;;;8.57;3.28;;;10.80;99.90;;;;;;4113143;28;20038;-76
2021/10/21 03:24:58;;;;;;;4.55;2.50;;;10.80;99.90;;;;;;4116509;28;20042;-77
2021/10/21 03:26:59;;;;;;;10.13;3.03;;;10.80;99.90;;;;;;4115559;28;20037;-77
2021/10/21 03:29:00;;;;;;;5.00;2.60;;;10.80;99.90;;;;;;4098533;28;20479;-76
2021/10/21 03:31:01;;;;;;;10.13;3.85;;;10.90;99.90;;;;;;4122556;28;20026;-76
2021/10/21 03:33:02;;;;;;;8.40;2.65;;;10.90;99.90;;;;;;4126848;28;20118;-77
2021/10/21 03:35:05;;;;;;;7.65;2.22;;;10.90;99.90;;;;;;4114057;28;20082;-78
2021/10/21 03:37:05;;;;;;;7.03;2.30;;;11.00;99.90;;;;;;4114699;28;20069;-78
2021/10/21 03:39:06;;;;;;;9.60;2.85;;;11.10;99.90;;;;;;4115265;28;20038;-76
2021/10/21 03:41:07;;;;;;;8.77;2.72;;;11.00;99.90;;;;;;4130121;28;20105;-78
2021/10/21 03:43:07;;;;;;;5.82;2.55;;;11.00;99.90;;;;;;4115363;28;20429;-76
2021/10/21 03:45:09;;;;;;;6.43;2.60;;;11.10;99.90;;;;;;4116689;28;20466;-77
2021/10/21 03:47:10;;;;;;;4.13;2.42;;;11.20;99.90;;;;;;4126156;28;20038;-77
2021/10/21 03:49:11;;;;;;;8.10;2.63;;;11.30;99.90;;;;;;4126892;28;20058;-76
2021/10/21 03:51:11;;;;;;;5.20;2.28;;;11.30;99.90;;;;;;4100049;28;20094;-76
2021/10/21 03:53:13;;;;;;;6.70;2.78;;;11.40;99.90;;;;;;4103547;28;20046;-78
2021/10/21 03:55:14;;;;;;;4.35;2.60;;;11.50;99.90;;;;;;4126101;28;20038;-78
2021/10/21 03:57:15;;;;;;;4.68;3.47;;;11.60;99.90;;;;;;4123079;28;20053;-78
2021/10/21 03:59:16;;;;;;;9.45;3.35;;;11.70;99.90;;;;;;4123557;28;20374;-79
2021/10/21 04:01:16;;;;;;;9.63;3.20;;;11.50;99.90;;;;;;4099158;28;20039;-79
2021/10/21 04:03:17;;;;;;;6.97;3.00;;;11.60;99.90;;;;;;4114756;28;20038;-76
2021/10/21 04:05:18;;;;;;;8.68;3.15;;;11.70;99.90;;;;;;4115613;28;20019;-77
2021/10/21 04:07:19;;;;;;;12.93;3.25;;;11.70;99.90;;;;;;4098185;28;20046;-79
2021/10/21 04:09:20;;;;;;;5.28;3.22;;;11.70;99.90;;;;;;4128870;28;20030;-79
2021/10/21 04:11:21;;;;;;;9.10;3.33;;;11.80;99.90;;;;;;4115013;28;20046;-76
2021/10/21 04:13:22;;;;;;;10.55;3.42;;;11.80;99.90;;;;;;4125440;28;20038;-76
2021/10/21 04:15:25;;;;;;;9.48;3.20;;;11.80;99.90;;;;;;4098727;28;20042;-79
2021/10/21 04:17:26;;;;;;;6.57;3.00;;;11.80;99.90;;;;;;4115416;28;20061;-78
2021/10/21 04:19:26;;;;;;;5.80;2.55;;;11.90;99.90;;;;;;4114875;28;20483;-77
2021/10/21 04:21:27;;;;;;;9.68;3.17;;;11.90;99.90;;;;;;4097648;28;20514;-78
2021/10/21 04:23:28;;;;;;;8.68;2.85;;;11.90;99.90;;;;;;4116213;28;20042;-78
2021/10/21 04:25:29;;;;;;;9.52;2.95;;;11.90;99.90;;;;;;4113532;28;20371;-79
2021/10/21 04:27:29;;;;;;;11.25;3.67;;;11.90;99.90;;;;;;4110341;28;20035;-78
2021/10/21 04:29:30;;;;;;;7.80;2.60;;;11.90;99.90;;;;;;4095873;28;20065;-79
2021/10/21 04:31:31;;;;;;;11.57;4.00;;;11.90;99.90;;;;;;4107700;28;20062;-79
2021/10/21 04:33:32;;;;;;;7.05;3.25;;;11.80;99.90;;;;;;4109894;28;20034;-79
2021/10/21 04:35:33;;;;;;;4.15;2.40;;;11.80;99.90;;;;;;4090137;28;20599;-78
2021/10/21 04:37:35;;;;;;;8.40;3.40;;;11.70;99.90;;;;;;4121140;28;20065;-79
2021/10/21 04:39:35;;;;;;;7.38;2.97;;;11.70;99.90;;;;;;4113337;28;20118;-78
2021/10/21 04:41:36;;;;;;;8.18;2.85;;;11.50;99.90;;;;;;4127561;28;20656;-79
2021/10/21 04:43:37;;;;;;;5.63;2.80;;;11.50;99.90;;;;;;4109716;28;20066;-78
2021/10/21 04:45:38;;;;;;;5.22;3.10;;;11.50;99.90;;;;;;4098000;28;20082;-78
2021/10/21 04:47:38;;;;;;;7.30;3.03;;;11.50;99.90;;;;;;4117580;28;20035;-78
2021/10/21 04:49:39;;;;;;;5.60;3.63;;;11.40;99.90;;;;;;4115855;28;20047;-79
2021/10/21 04:51:40;;;;;;;9.50;3.08;;;11.40;99.90;;;;;;4101976;28;20031;-77
2021/10/21 04:53:41;;;;;;;7.15;2.92;;;11.40;99.90;;;;;;4115150;28;20058;-77
2021/10/21 04:55:41;;;;;;;9.10;3.50;;;11.40;99.90;;;;;;4114242;28;20057;-78
2021/10/21 04:57:42;;;;;;;8.68;3.50;;;11.30;99.90;;;;;;4114239;28;20454;-78
2021/10/21 04:59:43;;;;;;;6.75;2.65;;;11.20;99.90;;;;;;4101374;28;20118;-76
2021/10/21 05:01:43;;;;;;;7.60;4.82;;;11.20;99.90;;;;;;4115994;28;20043;-79
2021/10/21 05:03:44;;;;;;;16.10;4.70;;;11.20;99.90;;;;;;4110326;28;20034;-78
2021/10/21 05:05:45;;;;;;;12.85;3.85;;;11.10;99.90;;;;;;4114147;28;20058;-79
2021/10/21 05:07:46;;;;;;;8.77;3.35;;;11.00;99.90;;;;;;4113308;28;20039;-75
2021/10/21 05:09:46;;;;;;;9.95;4.38;;;11.00;99.90;;;;;;4113929;28;20058;-77
2021/10/21 05:11:47;;;;;;;13.95;4.30;;;11.00;99.90;;;;;;4113099;28;20130;-78
2021/10/21 05:13:48;;;;;;;14.50;3.97;;;11.00;99.90;;;;;;4109081;28;20035;-78
2021/10/21 05:15:49;;;;;;;9.52;4.13;;;10.90;99.90;;;;;;4112721;28;20038;-78
2021/10/21 05:17:50;;;;;;;10.27;3.95;;;10.90;99.90;;;;;;4114042;28;20063;-79
2021/10/21 05:19:51;;;;;;;8.30;3.97;;;11.00;99.90;;;;;;4111430;28;20111;-78
2021/10/21 05:21:52;;;;;;;9.85;4.20;;;11.10;99.90;;;;;;4110146;28;20039;-78
2021/10/21 05:23:53;;;;;;;14.43;4.63;;;11.10;99.90;;;;;;4112720;28;20034;-76
2021/10/21 05:25:54;;;;;;;5.97;3.85;;;11.10;99.90;;;;;;4124814;28;20161;-76
2021/10/21 05:27:54;;;;;;;11.98;4.82;;;11.10;99.90;;;;;;4113223;28;20053;-77
2021/10/21 05:29:55;;;;;;;8.90;4.40;;;11.10;99.90;;;;;;4107599;28;20089;-76
2021/10/21 05:31:56;;;;;;;4.00;2.47;;;11.10;99.90;;;;;;4107193;28;20031;-76
2021/10/21 05:33:58;;;;;;;2.50;2.15;;;11.10;99.90;;;;;;4095496;28;20403;-75
2021/10/21 05:35:59;;;;;;;5.80;2.15;;;10.80;99.90;;;;;;4114062;28;20057;-76
2021/10/21 05:38:00;;;;;;;1.55;1.45;;;10.60;99.90;;;;;;4102003;28;20055;-75
2021/10/21 05:40:01;;;;;;;3.38;1.52;;;10.40;99.90;;;;;;4105148;28;20039;-78
2021/10/21 05:42:02;;;;;;;4.05;1.77;;;10.20;99.90;;;;;;4098738;28;20127;-77
2021/10/21 05:44:02;;;;;;;3.60;1.80;;;10.10;99.90;;;;;;4112278;28;20054;-77
2021/10/21 05:46:03;;;;;;;1.70;1.60;;;10.00;99.90;;;;;;4111301;28;20042;-76
2021/10/21 05:48:04;;;;;;;2.65;1.70;;;10.00;99.90;;;;;;4127318;28;20126;-76
2021/10/21 05:50:05;;;;;;;4.20;1.88;;;10.00;99.90;;;;;;4111599;28;20474;-76
2021/10/21 05:52:06;;;;;;;2.60;1.83;;;10.00;99.90;;;;;;4123604;28;20050;-75
2021/10/21 05:54:06;;;;;;;5.38;2.00;;;10.00;99.90;;;;;;4100977;28;20070;-76
2021/10/21 05:56:07;;;;;;;4.65;1.90;;;10.00;99.90;;;;;;4112059;28;20034;-74
2021/10/21 05:58:12;;;;;;;5.15;2.00;;;10.00;99.90;;;;;;4102417;28;20030;-76
2021/10/21 06:00:13;;;;;;;5.57;2.33;;;10.00;99.90;;;;;;4113565;28;20046;-76
2021/10/21 06:02:15;;;;;;;6.18;1.88;;;9.90;99.90;;;;;;4112749;28;20031;-75
2021/10/21 06:04:16;;;;;;;4.90;2.20;;;10.00;99.90;;;;;;4099503;28;20040;-75
2021/10/21 06:06:17;;;;;;;6.40;1.65;;;10.10;99.90;;;;;;4128312;28;20106;-75
2021/10/21 06:08:18;;;;;;;4.93;1.80;;;10.10;99.90;;;;;;4107492;28;20036;-77
2021/10/21 06:10:18;;;;;;;7.20;2.65;;;10.10;99.90;;;;;;4108023;28;20513;-75
2021/10/21 06:12:20;;;;;;;3.22;2.08;;;10.00;99.90;;;;;;4102483;28;20067;-76
2021/10/21 06:14:21;;;;;;;5.53;2.22;;;10.00;99.90;;;;;;4107582;28;23560;-75
2021/10/21 06:16:22;;;;;;;6.90;2.22;;;10.00;99.90;;;;;;4124461;28;20407;-76
2021/10/21 06:18:23;;;;;;;3.63;1.77;;;10.10;99.90;;;;;;4095770;28;20043;-75
2021/10/21 06:20:24;;;;;;;5.95;2.03;;;10.10;99.90;;;;;;4104284;28;20491;-76
2021/10/21 06:22:25;;;;;;;10.95;2.30;;;10.10;99.90;;;;;;4119471;28;20057;-78
2021/10/21 06:24:27;;;;;;;5.15;2.15;;;10.00;99.90;;;;;;4111858;28;20047;-75
2021/10/21 06:26:28;;;;;;;5.38;2.17;;;9.90;99.90;;;;;;4111148;28;20047;-76
2021/10/21 06:28:29;;;;;;;5.43;2.28;;;9.90;99.90;;;;;;4108739;28;20426;-77
2021/10/21 06:30:30;;;;;;;6.70;2.70;;;9.90;99.90;;;;;;4114844;28;20043;-78
2021/10/21 06:32:31;;;;;;;7.78;2.33;;;9.90;99.90;;;;;;4113489;28;20050;-75
2021/10/21 06:34:32;;;;;;;7.47;2.97;;;9.90;99.90;;;;;;4127081;28;20626;-76
2021/10/21 06:36:34;;;;;;;10.68;3.13;;;10.00;99.90;;;;;;4110003;28;20046;-77
2021/10/21 06:38:35;;;;;;;11.10;3.17;;;9.90;99.90;;;;;;4127820;28;20494;-77
2021/10/21 06:40:36;;;;;;;21.08;4.47;;;9.90;99.90;;;;;;4112700;28;20078;-77
2021/10/21 06:42:37;;;;;;;9.73;3.33;;;10.00;99.90;;;;;;4125917;28;20042;-76
2021/10/21 06:44:38;;;;;;;13.45;3.25;;;9.90;99.90;;;;;;4119743;28;20575;-76
2021/10/21 06:46:39;;;;;;;8.50;3.78;;;10.00;99.90;;;;;;4125635;28;20092;-75
2021/10/21 06:48:40;;;;;;;13.80;3.20;;;10.00;99.90;;;;;;4114060;28;20080;-75
2021/10/21 06:50:41;;;;;;;9.57;2.60;;;10.00;99.90;;;;;;4115340;28;20606;-77
2021/10/21 06:52:44;;;;;;;9.38;3.45;;;10.20;99.90;;;;;;4122136;28;20042;-76
2021/10/21 06:54:46;;;;;;;7.45;2.63;;;10.20;99.90;;;;;;4122002;28;20114;-76
2021/10/21 06:56:46;;;;;;;12.13;3.17;;;10.20;99.90;;;;;;4105209;28;20185;-77
2021/10/21 06:58:47;;;;;;;15.95;3.33;;;10.20;99.90;;;;;;4107088;28;20142;-73
2021/10/21 07:00:48;;;;;;;16.58;3.70;;;10.20;99.90;;;;;;4122542;28;20101;-71
2021/10/21 07:02:50;;;;;;;9.02;3.20;;;10.20;99.90;;;;;;4114645;28;20035;-73
2021/10/21 07:04:51;;;;;;;12.63;3.10;;;10.20;99.90;;;;;;4116720;28;20411;-73
2021/10/21 07:06:51;;;;;;;16.13;3.08;;;10.20;99.90;;;;;;4127874;28;20133;-73
2021/10/21 07:08:53;;;;;;;13.43;3.13;;;10.20;99.90;;;;;;4099030;28;20138;-73
2021/10/21 07:10:57;;;;;;;11.63;3.63;;;10.20;99.90;;;;;;4104417;28;20031;-73
2021/10/21 07:12:58;;;;;;;10.82;3.03;;;10.20;99.90;;;;;;4108946;28;20042;-72
2021/10/21 07:15:00;;;;;;;7.80;2.40;;;;;;;;;;4130061;28;20035;-69
2021/10/21 07:17:01;;;;;;;7.85;2.70;;;;;;;;;;4116444;28;20129;-72
2021/10/21 07:19:02;;;;;;;24.40;4.75;;;;;;;;;;4107403;28;20536;-72
2021/10/21 07:21:03;;;;;;;19.00;3.75;;;;;;;;;;4110217;28;20525;-72
2021/10/21 07:23:05;;;;;;;23.67;6.15;;;;;;;;;;4112115;28;20445;-71
2021/10/21 07:25:06;;;;;;;12.38;3.92;;;;;;;;;;4112912;28;20371;-71
2021/10/21 07:27:07;;;;;;;13.52;5.60;;;10.40;99.90;;;;;;4115053;28;20112;-71
2021/10/21 07:29:08;;;;;;;12.27;3.42;;;10.40;99.90;;;;;;4100676;28;20055;-71
2021/10/21 07:31:13;;;;;;;16.50;4.70;;;10.40;99.90;;;;;;4129191;28;20561;-73
2021/10/21 07:33:14;;;;;;;14.32;4.63;;;10.40;99.90;;;;;;4111152;28;20043;-72
2021/10/21 07:35:16;;;;;;;11.40;3.65;;;10.40;99.90;;;;;;4112325;28;20139;-71
2021/10/21 07:37:17;;;;;;;8.95;3.25;;;10.30;99.90;;;;;;4116417;28;20035;-71
2021/10/21 07:39:17;;;;;;;11.13;3.53;;;10.40;99.90;;;;;;4114875;28;20050;-72
2021/10/21 07:41:19;;;;;;;18.23;3.60;;;10.40;99.90;;;;;;4111878;28;20587;-71
2021/10/21 07:43:20;;;;;;;10.43;2.97;;;10.40;99.90;;;;;;4106493;28;20138;-72
2021/10/21 07:45:20;;;;;;;18.88;4.47;;;10.50;99.90;;;;;;4126987;28;20113;-71
2021/10/21 07:47:23;;;;;;;9.93;3.65;;;10.50;99.90;;;;;;4113567;28;20046;-72
2021/10/21 07:49:24;;;;;;;13.50;3.75;;;10.40;99.90;;;;;;4105839;28;20089;-73
2021/10/21 07:51:24;;;;;;;11.43;3.25;;;10.40;99.90;;;;;;4124273;28;20662;-72
2021/10/21 07:53:28;;;;;;;11.30;3.35;;;10.50;99.90;;;;;;4097928;28;20027;-72
2021/10/21 07:55:32;;;;;;;10.93;3.90;;;10.60;99.90;;;;;;4104557;28;20178;-73
2021/10/21 07:57:32;;;;;;;12.30;5.25;;;10.60;99.90;;;;;;4101298;28;20121;-73
2021/10/21 07:59:35;;;;;;;12.38;4.57;;;10.60;99.90;;;;;;4125741;28;20041;-72
2021/10/21 08:01:35;;;;;;;13.77;4.68;;;10.70;99.90;;;;;;4129188;28;20498;-72
2021/10/21 08:03:36;;;;;;;18.67;5.22;;;10.80;99.90;;;;;;4129912;28;20057;-71
2021/10/21 08:05:37;;;;;;;13.13;3.55;;;10.80;99.90;;;;;;4114732;28;20042;-71
2021/10/21 08:07:48;;;;;;;15.68;4.18;;;10.80;99.90;;;;;;4113421;28;20114;-72
2021/10/21 08:09:48;;;;;;;14.63;4.20;;;10.80;99.90;;;;;;4111569;28;20106;-72
2021/10/21 08:11:50;;;;;;;25.13;6.25;;;10.80;99.90;;;;;;4117154;28;20058;-72
2021/10/21 08:13:52;;;;;;;14.43;4.05;;;10.80;99.90;;;;;;4129374;28;20030;-72
2021/10/21 08:15:52;;;;;;;11.88;4.55;;;10.80;99.90;;;;;;4127401;28;20050;-72
2021/10/21 08:17:54;;;;;;;18.35;5.00;;;10.80;99.90;;;;;;4115111;28;20506;-73
2021/10/21 08:19:55;;;;;;;7.80;3.90;;;10.80;99.90;;;;;;4125992;28;20066;-72
2021/10/21 08:21:57;;;;;;;16.13;3.63;;;10.90;99.90;;;;;;4111227;28;20046;-72
2021/10/21 08:23:59;;;;;;;24.70;5.95;;;11.00;99.90;;;;;;4097058;28;20042;-72
2021/10/21 08:26:00;;;;;;;13.45;3.75;;;11.00;99.90;;;;;;4098657;28;20039;-72
2021/10/21 08:28:01;;;;;;;21.02;3.88;;;10.90;99.90;;;;;;4084875;28;20408;-72
2021/10/21 08:30:02;;;;;;;16.58;3.72;;;10.90;99.90;;;;;;4103811;28;20129;-71
2021/10/21 08:32:06;;;;;;;14.85;4.10;;;10.90;99.90;;;;;;4103027;28;20031;-73
2021/10/21 08:34:06;;;;;;;;;;;10.90;99.90;;;;;;4121652;28;20038;-72
2021/10/21 08:36:11;;;;;;;12.30;3.65;;;11.00;99.90;;;;;;4108468;28;19933;-72
2021/10/21 08:38:12;;;;;;;13.65;3.67;;;11.10;99.90;;;;;;4121148;28;20046;-71
2021/10/21 08:40:15;;;;;;;11.65;3.28;;;11.20;99.90;;;;;;4122315;28;20030;-71
2021/10/21 08:42:19;;;;;;;20.02;4.50;;;11.20;99.90;;;;;;4111422;28;20031;-73
2021/10/21 08:44:20;;;;;;;;;;;11.50;99.90;;;;;;4129485;28;20035;-73
2021/10/21 08:46:26;;;;;;;12.15;3.05;;;11.60;99.90;;;;;;4113352;28;19952;-73
2021/10/21 08:48:29;;;;;;;11.90;3.00;;;11.50;99.90;;;;;;4113148;28;20038;-71
2021/10/21 08:50:33;;;;;;;12.27;3.35;;;11.10;99.90;;;;;;4107057;28;20467;-74
2021/10/21 08:52:34;;;;;;;6.57;3.10;;;10.80;99.90;;;;;;4099131;28;20478;-72
2021/10/21 08:54:35;;;;;;;12.57;3.33;;;10.50;99.90;;;;;;4106220;28;20036;-72
2021/10/21 08:56:37;;;;;;;10.98;4.78;;;10.40;99.90;;;;;;4100787;28;20038;-72
2021/10/21 08:58:38;;;;;;;8.23;3.92;;;10.40;99.90;;;;;;4126897;28;20629;-72
2021/10/21 09:00:39;;;;;;;11.43;3.33;;;10.30;99.90;;;;;;4114015;28;20049;-71
2021/10/21 09:02:52;;;;;;;13.43;5.25;;;10.10;99.90;;;;;;4111981;28;20031;-72
2021/10/21 09:05:26;;;;;;;7.65;3.28;;;9.90;99.90;;;;;;4127527;28;20045;-71
2021/10/21 09:09:47;;;;;;;7.40;3.03;;;9.90;99.90;;;;;;4113012;28;20046;-71
2021/10/21 09:12:17;;;;;;;15.45;5.35;;;9.90;99.90;;;;;;4113274;28;20039;-72
2021/10/21 09:14:18;;;;;;;11.20;3.10;;;9.80;99.90;;;;;;4111938;28;20125;-72
2021/10/21 09:16:19;;;;;;;8.63;3.40;;;9.90;99.90;;;;;;4110997;28;20047;-72
2021/10/21 09:18:20;;;;;;;10.13;3.47;;;9.90;99.90;;;;;;4119635;28;20045;-72
2021/10/21 09:20:23;;;;;;;9.90;3.40;;;9.90;99.90;;;;;;4110429;28;20093;-71
2021/10/21 09:22:28;;;;;;;9.00;3.50;;;9.90;99.90;;;;;;4112902;28;20042;-70
2021/10/21 09:24:31;;;;;;;8.68;3.38;;;9.90;99.90;;;;;;4106672;28;20509;-71
2021/10/21 09:26:32;;;;;;;11.23;3.85;;;9.80;99.90;;;;;;4115290;28;20137;-71
2021/10/21 09:28:33;;;;;;;10.05;3.72;;;9.80;99.90;;;;;;4122950;28;20034;-72
2021/10/21 09:30:34;;;;;;;13.68;3.30;;;9.90;99.90;;;;;;4099253;28;20039;-70
2021/10/21 09:32:39;;;;;;;9.48;3.00;;;9.90;99.90;;;;;;4110537;28;20552;-71
2021/10/21 09:34:51;;;;;;;13.18;5.00;;;9.90;99.90;;;;;;4113225;28;20034;-71
2021/10/21 09:36:52;;;;;;;12.43;3.50;;;10.00;99.90;;;;;;4123637;28;20030;-71
2021/10/21 09:38:57;;;;;;;11.70;3.53;;;10.00;99.90;;;;;;4097060;28;20482;-72
2021/10/21 09:41:04;;;;;;;9.18;4.13;;;10.10;99.90;;;;;;4122051;28;20132;-73
2021/10/21 09:43:06;;;;;;;10.88;3.38;;;10.20;99.90;;;;;;4101780;28;20042;-72
2021/10/21 09:45:19;;;;;;;12.35;3.25;;;10.40;99.90;;;;;;4095319;28;20039;-73
2021/10/21 09:47:21;;;;;;;10.02;2.97;;;10.50;99.90;;;;;;4126929;28;20544;-72
2021/10/21 09:49:33;;;;;;;13.48;3.72;;;10.60;99.90;;;;;;4124201;28;20073;-74
2021/10/21 09:51:37;;;;;;;15.52;4.10;;;10.60;99.90;;;;;;4097775;28;20127;-73
2021/10/21 09:53:37;;;;;;;12.23;3.85;;;10.70;99.90;;;;;;4101242;28;20411;-73
2021/10/21 09:55:45;;;;;;;12.95;3.67;;;10.80;99.90;;;;;;4109422;28;20041;-72
2021/10/21 09:57:45;;;;;;;10.60;2.80;;;10.70;99.90;;;;;;4116824;28;20407;-74
2021/10/21 10:00:04;;;;;;;10.15;3.05;;;10.70;99.90;;;;;;4106491;28;20046;-73
2021/10/21 10:02:17;;;;;;;14.48;3.50;;;10.60;99.90;;;;;;4097664;28;20040;-73
2021/10/21 10:04:18;;;;;;;;;;;10.60;99.90;;;;;;4110200;28;20085;-74
2021/10/21 10:06:19;;;;;;;10.43;4.28;;;10.70;99.90;;;;;;4114872;28;19913;-71
2021/10/21 10:08:21;;;;;;;8.93;3.45;;;10.70;99.90;;;;;;4114503;28;20413;-72
2021/10/21 10:10:22;;;;;;;7.78;2.97;;;10.70;99.90;;;;;;4102694;28;20039;-73
2021/10/21 10:12:23;;;;;;;11.48;2.90;;;10.90;99.90;;;;;;4116433;28;20058;-71
2021/10/21 10:14:26;;;;;;;12.95;4.13;;;11.00;99.90;;;;;;4115575;28;20030;-71
2021/10/21 10:16:26;;;;;;;12.15;4.43;;;11.00;99.90;;;;;;4108609;28;20594;-72
2021/10/21 10:18:31;;;;;;;19.17;4.53;;;11.00;99.90;;;;;;4117311;28;20038;-73
2021/10/21 10:20:34;;;;;;;15.63;3.05;;;11.00;99.90;;;;;;4115208;28;20030;-73
2021/10/21 10:22:39;;;;;;;5.88;2.97;;;11.10;99.90;;;;;;4130933;28;20094;-73
2021/10/21 10:24:40;;;;;;;10.52;2.67;;;11.10;99.90;;;;;;4120804;28;20533;-73
2021/10/21 10:26:57;;;;;;;15.48;3.22;;;11.00;99.90;;;;;;4127992;28;20030;-74
2021/10/21 10:28:58;;;;;;;12.82;2.67;;;11.00;99.90;;;;;;4099854;28;20053;-73
2021/10/21 10:30:59;;;;;;;17.58;3.88;;;11.00;99.90;;;;;;4111912;28;20510;-71
2021/10/21 10:32:59;;;;;;;15.68;3.72;;;10.90;99.90;;;;;;4102264;28;20035;-72
2021/10/21 10:35:05;;;;;;;10.90;3.28;;;10.90;99.90;;;;;;4115066;28;20455;-72